createdAt,value
2023-04-02T00:00:19.989Z,4.62
2023-04-02T00:03:23.724Z,4.53
2023-04-02T00:06:40.622Z,4.85
2023-04-02T00:09:44.325Z,4.53
2023-04-02T00:13:20.021Z,4.37
2023-04-02T00:16:25.233Z,3.72
2023-04-02T00:19:53.250Z,4.62
2023-04-02T00:22:56.980Z,3.70
2023-04-02T00:26:00.464Z,3.45
2023-04-02T00:29:06.391Z,2.90
2023-04-02T00:32:20.409Z,2.70
2023-04-02T00:35:29.831Z,2.60
2023-04-02T00:38:35.478Z,2.67
2023-04-02T00:41:39.229Z,1.90
2023-04-02T00:44:45.282Z,1.80
2023-04-02T00:47:48.747Z,1.60
2023-04-02T00:50:54.594Z,1.33
2023-04-02T00:54:04.117Z,1.30
2023-04-02T00:57:16.583Z,1.10
2023-04-02T01:00:20.494Z,1.40
2023-04-02T01:03:37.486Z,1.17
2023-04-02T01:06:44.132Z,1.10
2023-04-02T01:10:04.265Z,0.93
2023-04-02T01:13:30.801Z,1.10
2023-04-02T01:16:50.535Z,0.93
2023-04-02T01:20:36.891Z,0.82
2023-04-02T01:23:49.491Z,1.30
2023-04-02T01:27:01.180Z,0.80
2023-04-02T01:30:07.499Z,0.60
2023-04-02T01:33:12.649Z,0.70
2023-04-02T01:36:20.708Z,0.80
2023-04-02T01:39:42.848Z,0.75
2023-04-02T01:42:58.416Z,0.70
2023-04-02T01:46:24.132Z,0.80
2023-04-02T01:49:28.786Z,0.80
2023-04-02T01:52:39.637Z,0.70
2023-04-02T01:55:47.226Z,0.65
2023-04-02T01:58:51.040Z,0.70
2023-04-02T02:02:03.930Z,0.90
2023-04-02T02:05:17.621Z,0.80
2023-04-02T02:08:43.010Z,0.60
2023-04-02T02:11:47.023Z,0.77
2023-04-02T02:14:52.394Z,0.82
2023-04-02T02:18:03.259Z,1.03
2023-04-02T02:21:08.537Z,1.00
2023-04-02T02:24:29.322Z,0.62
2023-04-02T02:28:01.637Z,0.90
2023-04-02T02:31:18.644Z,0.80
2023-04-02T02:34:30.050Z,1.52
2023-04-02T02:37:42.038Z,1.00
2023-04-02T02:40:48.700Z,1.12
2023-04-02T02:44:05.096Z,1.00
2023-04-02T02:47:23.719Z,1.10
2023-04-02T02:50:31.791Z,0.70
2023-04-02T02:53:53.038Z,0.80
2023-04-02T02:57:04.271Z,1.10
2023-04-02T03:00:11.793Z,0.90
2023-04-02T03:03:24.259Z,1.20
2023-04-02T03:06:28.319Z,1.02
2023-04-02T03:10:00.173Z,1.12
2023-04-02T03:13:23.891Z,1.02
2023-04-02T03:16:45.899Z,1.30
2023-04-02T03:20:01.923Z,1.10
2023-04-02T03:23:13.079Z,1.20
2023-04-02T03:26:34.260Z,1.20
2023-04-02T03:29:44.046Z,1.30
2023-04-02T03:32:52.726Z,1.40
2023-04-02T03:36:25.875Z,1.42
2023-04-02T03:39:53.602Z,1.58
2023-04-02T03:43:20.680Z,1.67
2023-04-02T03:46:37.250Z,1.40
2023-04-02T03:49:48.224Z,1.85
2023-04-02T03:52:52.142Z,1.35
2023-04-02T03:55:57.288Z,1.83
2023-04-02T03:59:41.618Z,1.83
2023-04-02T04:02:53.530Z,1.92
2023-04-02T04:06:02.520Z,1.70
2023-04-02T04:09:22.908Z,1.77
2023-04-02T04:12:47.179Z,1.90
2023-04-02T04:16:02.990Z,1.55
2023-04-02T04:19:18.265Z,1.70
2023-04-02T04:22:33.948Z,2.15
2023-04-02T04:25:38.184Z,2.08
2023-04-02T04:29:17.091Z,1.60
2023-04-02T04:32:35.431Z,2.17
2023-04-02T04:35:46.976Z,3.08
2023-04-02T04:38:55.745Z,3.20
2023-04-02T04:42:02.780Z,2.37
2023-04-02T04:45:09.579Z,2.95
2023-04-02T04:48:21.482Z,2.65
2023-04-02T04:51:53.666Z,3.00
2023-04-02T04:54:57.685Z,5.27
2023-04-02T04:58:08.695Z,4.97
2023-04-02T05:01:38.567Z,4.18
2023-04-02T05:04:44.744Z,3.63
2023-04-02T05:07:59.856Z,3.10
2023-04-02T05:11:40.173Z,4.60
2023-04-02T05:14:58.364Z,3.40
2023-04-02T05:18:22.987Z,2.70
2023-04-02T05:21:57.745Z,3.40
2023-04-02T05:25:17.079Z,3.00
2023-04-02T05:28:30.787Z,4.40
2023-04-02T05:32:17.907Z,5.28
2023-04-02T05:35:29.903Z,4.65
2023-04-02T05:38:37.547Z,3.40
2023-04-02T05:41:45.092Z,5.68
2023-04-02T05:45:16.258Z,3.03
2023-04-02T05:48:43.449Z,2.70
2023-04-02T05:51:52.948Z,2.00
2023-04-02T05:55:19.736Z,2.83
2023-04-02T05:58:36.744Z,2.70
2023-04-02T06:01:51.988Z,2.30
2023-04-02T06:05:11.670Z,2.05
2023-04-02T06:08:24.126Z,2.00
2023-04-02T06:11:37.439Z,1.73
2023-04-02T06:14:41.182Z,1.70
2023-04-02T06:18:06.541Z,1.40
2023-04-02T06:21:15.589Z,1.52
2023-04-02T06:24:24.526Z,1.50
2023-04-02T06:27:29.669Z,1.48
2023-04-02T06:30:39.719Z,1.60
2023-04-02T06:33:44.069Z,1.30
2023-04-02T06:36:49.144Z,1.45
2023-04-02T06:39:53.494Z,2.10
2023-04-02T06:42:59.956Z,1.67
2023-04-02T06:46:11.265Z,1.62
2023-04-02T06:49:31.069Z,1.60
2023-04-02T06:52:44.846Z,1.58
2023-04-02T06:56:03.435Z,1.80
2023-04-02T06:59:07.937Z,2.03
2023-04-02T07:02:25.296Z,1.60
2023-04-02T07:05:28.944Z,1.50
2023-04-02T07:08:32.765Z,1.65
2023-04-02T07:11:36.853Z,1.80
2023-04-02T07:14:40.993Z,1.50
2023-04-02T07:17:44.319Z,1.98
2023-04-02T07:20:47.869Z,1.90
2023-04-02T07:23:51.396Z,1.58
2023-04-02T07:26:55.957Z,1.58
2023-04-02T07:30:00.134Z,1.77
2023-04-02T07:33:03.596Z,1.42
2023-04-02T07:36:07.042Z,1.70
2023-04-02T07:39:10.778Z,1.33
2023-04-02T07:42:13.874Z,1.20
2023-04-02T07:45:17.277Z,1.55
2023-04-02T07:48:20.774Z,1.10
2023-04-02T07:51:27.917Z,1.40
2023-04-02T07:54:33.454Z,1.85
2023-04-02T07:57:44.286Z,1.98
2023-04-02T08:00:48.932Z,1.30
2023-04-02T08:03:57.746Z,1.70
2023-04-02T08:07:01.739Z,1.43
2023-04-02T08:10:06.734Z,1.50
2023-04-02T08:13:10.061Z,2.37
2023-04-02T08:16:13.791Z,2.25
2023-04-02T08:19:17.991Z,2.37
2023-04-02T08:22:21.984Z,2.30
2023-04-02T08:25:25.176Z,2.20
2023-04-02T08:28:28.698Z,2.05
2023-04-02T08:31:32.464Z,2.08
2023-04-02T08:34:36.009Z,1.73
2023-04-02T08:37:39.491Z,1.40
2023-04-02T08:40:45.664Z,1.40
2023-04-02T08:44:29.815Z,1.40
2023-04-02T08:47:41.184Z,1.55
2023-04-02T08:50:45.976Z,1.62
2023-04-02T08:53:50.581Z,1.40
2023-04-02T08:57:06.688Z,1.20
2023-04-02T09:00:13.776Z,1.40
2023-04-02T09:03:28.013Z,1.40
2023-04-02T09:06:31.813Z,1.50
2023-04-02T09:09:38.314Z,1.80
2023-04-02T09:12:47.149Z,1.73
2023-04-02T09:15:53.673Z,1.90
2023-04-02T09:18:57.184Z,2.33
2023-04-02T09:22:20.945Z,2.22
2023-04-02T09:25:32.449Z,1.63
2023-04-02T09:28:36.397Z,1.50
2023-04-02T09:31:45.740Z,1.45
2023-04-02T09:34:49.028Z,1.25
2023-04-02T09:38:17.521Z,1.40
2023-04-02T09:41:21.150Z,1.63
2023-04-02T09:44:31.285Z,1.50
2023-04-02T09:47:34.499Z,1.40
2023-04-02T09:50:39.152Z,1.50
2023-04-02T09:53:43.779Z,1.40
2023-04-02T09:57:02.311Z,1.50
2023-04-02T10:00:31.392Z,1.48
2023-04-02T10:03:46.684Z,1.50
2023-04-02T10:06:50.908Z,1.40
2023-04-02T10:10:04.633Z,1.70
2023-04-02T10:13:32.014Z,1.50
2023-04-02T10:16:52.539Z,1.37
2023-04-02T10:20:01.750Z,1.48
2023-04-02T10:23:06.462Z,1.77
2023-04-02T10:26:17.216Z,1.90
2023-04-02T10:29:36.213Z,1.70
2023-04-02T10:32:48.996Z,1.30
2023-04-02T10:36:23.580Z,1.50
2023-04-02T10:39:39.681Z,1.37
2023-04-02T10:43:10.287Z,1.65
2023-04-02T10:46:32.452Z,2.20
2023-04-02T10:49:59.616Z,1.33
2023-04-02T10:53:16.181Z,1.40
2023-04-02T10:56:22.958Z,1.40
2023-04-02T10:59:35.650Z,1.30
2023-04-02T11:03:08.277Z,1.20
2023-04-02T11:06:23.193Z,1.40
2023-04-02T11:09:31.928Z,1.30
2023-04-02T11:12:44.829Z,1.10
2023-04-02T11:15:48.842Z,1.17
2023-04-02T11:19:32.026Z,1.33
2023-04-02T11:22:35.720Z,1.83
2023-04-02T11:25:39.831Z,1.58
2023-04-02T11:28:44.445Z,1.05
2023-04-02T11:31:49.088Z,1.10
2023-04-02T11:35:05.950Z,1.10
2023-04-02T11:38:10.391Z,1.40
2023-04-02T11:41:14.367Z,1.40
2023-04-02T11:44:24.360Z,1.50
2023-04-02T11:47:30.569Z,1.25
2023-04-02T11:50:35.016Z,1.30
2023-04-02T11:53:42.819Z,1.15
2023-04-02T11:57:01.442Z,1.40
2023-04-02T12:00:31.079Z,1.25
2023-04-02T12:04:06.975Z,1.50
2023-04-02T12:07:18.089Z,1.37
2023-04-02T12:10:32.752Z,1.33
2023-04-02T12:13:42.472Z,0.90
2023-04-02T12:16:47.999Z,1.15
2023-04-02T12:19:55.551Z,1.20
2023-04-02T12:22:59.270Z,1.00
2023-04-02T12:26:24.300Z,1.10
2023-04-02T12:29:29.221Z,1.17
2023-04-02T12:32:33.397Z,0.90
2023-04-02T12:35:37.313Z,1.20
2023-04-02T12:38:52.526Z,1.50
2023-04-02T12:41:56.485Z,1.10
2023-04-02T12:45:00.450Z,1.20
2023-04-02T12:48:06.325Z,1.20
2023-04-02T12:51:11.123Z,1.10
2023-04-02T12:54:20.860Z,1.30
2023-04-02T12:57:27.159Z,1.10
2023-04-02T13:00:33.475Z,0.93
2023-04-02T13:03:38.095Z,0.90
2023-04-02T13:06:52.260Z,1.00
2023-04-02T13:10:04.570Z,1.10
2023-04-02T13:13:16.697Z,0.90
2023-04-02T13:16:19.947Z,1.37
2023-04-02T13:19:32.457Z,0.98
2023-04-02T13:22:36.750Z,0.98
2023-04-02T13:25:40.865Z,0.90
2023-04-02T13:28:57.128Z,0.90
2023-04-02T13:32:06.817Z,0.80
2023-04-02T13:35:10.071Z,0.90
2023-04-02T13:38:14.728Z,0.90
2023-04-02T13:41:22.751Z,0.80
2023-04-02T13:44:29.457Z,0.90
2023-04-02T13:47:32.674Z,1.00
2023-04-02T13:50:37.435Z,1.10
2023-04-02T13:53:42.393Z,1.20
2023-04-02T13:56:47.685Z,0.90
2023-04-02T13:59:50.851Z,0.80
2023-04-02T14:03:01.731Z,0.90
2023-04-02T14:06:24.036Z,1.27
2023-04-02T14:09:30.057Z,1.33
2023-04-02T14:12:40.110Z,0.97
2023-04-02T14:16:16.953Z,1.00
2023-04-02T14:20:06.074Z,0.90
2023-04-02T14:23:17.462Z,1.20
2023-04-02T14:26:50.491Z,0.77
2023-04-02T14:30:33.387Z,1.23
2023-04-02T14:33:59.004Z,1.10
2023-04-02T14:37:18.329Z,1.30
2023-04-02T14:40:27.855Z,1.02
2023-04-02T14:43:50.618Z,1.10
2023-04-02T14:47:09.463Z,1.53
2023-04-02T14:50:18.947Z,1.45
2023-04-02T14:53:34.088Z,1.77
2023-04-02T14:56:57.793Z,1.92
2023-04-02T15:00:17.124Z,2.00
2023-04-02T15:03:38.476Z,2.00
2023-04-02T15:07:00.231Z,2.22
2023-04-02T15:10:11.308Z,2.17
2023-04-02T15:13:23.353Z,2.85
2023-04-02T15:16:27.966Z,2.55
2023-04-02T15:19:33.366Z,2.93
2023-04-02T15:22:45.022Z,2.80
2023-04-02T15:25:58.915Z,3.80
2023-04-02T15:29:39.651Z,4.55
2023-04-02T15:32:44.506Z,5.15
2023-04-02T15:35:56.669Z,4.60
2023-04-02T15:39:00.574Z,4.87
2023-04-02T15:42:31.333Z,7.12
2023-04-02T15:46:13.684Z,5.47
2023-04-02T15:49:46.222Z,5.87
2023-04-02T15:53:04.975Z,21.83
2023-04-02T15:56:34.382Z,9.18
2023-04-02T16:00:11.562Z,5.20
2023-04-02T16:03:41.595Z,4.87
2023-04-02T16:07:11.219Z,4.55
2023-04-02T16:10:41.293Z,4.60
2023-04-02T16:13:47.779Z,4.50
2023-04-02T16:16:55.191Z,4.57
2023-04-02T16:20:20.635Z,4.68
2023-04-02T16:23:40.180Z,4.90
2023-04-02T16:27:15.389Z,4.70
2023-04-02T16:30:41.201Z,5.00
2023-04-02T16:33:57.253Z,4.70
2023-04-02T16:37:01.485Z,4.20
2023-04-02T16:40:21.700Z,4.05
2023-04-02T16:43:38.346Z,4.30
2023-04-02T16:47:00.794Z,5.07
2023-04-02T16:50:12.149Z,6.43
2023-04-02T16:53:27.349Z,6.75
2023-04-02T16:56:34.144Z,7.45
2023-04-02T16:59:42.338Z,6.13
2023-04-02T17:03:01.283Z,6.25
2023-04-02T17:06:09.891Z,10.10
2023-04-02T17:09:28.226Z,18.65
2023-04-02T17:13:14.449Z,14.60
2023-04-02T17:16:32.223Z,11.07
2023-04-02T17:19:36.934Z,11.00
2023-04-02T17:22:42.388Z,9.73
2023-04-02T17:25:56.860Z,10.52
2023-04-02T17:29:07.908Z,11.38
2023-04-02T17:32:26.993Z,11.30
2023-04-02T17:36:02.428Z,11.30
2023-04-02T17:39:25.171Z,11.45
2023-04-02T17:42:46.023Z,10.30
2023-04-02T17:45:57.303Z,5.82
2023-04-02T17:49:21.837Z,5.23
2023-04-02T17:52:54.075Z,4.82
2023-04-02T17:56:04.048Z,4.57
2023-04-02T17:59:27.376Z,4.97
2023-04-02T18:02:49.495Z,3.87
2023-04-02T18:06:09.040Z,5.07
2023-04-02T18:09:20.466Z,3.55
2023-04-02T18:12:46.426Z,2.70
2023-04-02T18:16:28.939Z,2.80
2023-04-02T18:20:03.159Z,2.80
2023-04-02T18:23:33.114Z,2.47
2023-04-02T18:26:51.731Z,2.58
2023-04-02T18:30:14.178Z,2.72
2023-04-02T18:33:34.540Z,3.00
2023-04-02T18:37:06.049Z,2.47
2023-04-02T18:40:41.841Z,2.78
2023-04-02T18:44:02.901Z,2.58
2023-04-02T18:47:28.864Z,2.50
2023-04-02T18:50:37.754Z,2.72
2023-04-02T18:53:44.447Z,2.78
2023-04-02T18:56:49.288Z,2.70
2023-04-02T19:00:05.313Z,2.42
2023-04-02T19:03:14.730Z,2.30
2023-04-02T19:06:29.686Z,2.63
2023-04-02T19:09:38.332Z,2.87
2023-04-02T19:12:43.426Z,2.92
2023-04-02T19:16:00.912Z,2.42
2023-04-02T19:19:18.083Z,2.77
2023-04-02T19:22:44.575Z,2.35
2023-04-02T19:25:53.250Z,1.83
2023-04-02T19:29:39.106Z,1.73
2023-04-02T19:33:18.278Z,2.03
2023-04-02T19:36:46.409Z,2.00
2023-04-02T19:40:05.532Z,1.77
2023-04-02T19:43:11.526Z,2.12
2023-04-02T19:46:17.199Z,2.03
2023-04-02T19:49:29.575Z,2.20
2023-04-02T19:52:37.084Z,2.12
2023-04-02T19:55:46.544Z,2.35
2023-04-02T19:58:52.033Z,2.00
2023-04-02T20:01:59.639Z,2.15
2023-04-02T20:05:03.848Z,2.20
2023-04-02T20:08:11.571Z,2.30
2023-04-02T20:11:18.224Z,2.28
2023-04-02T20:14:23.297Z,2.08
2023-04-02T20:17:29.457Z,1.90
2023-04-02T20:20:35.501Z,2.20
2023-04-02T20:23:41.094Z,2.15
2023-04-02T20:26:46.637Z,2.10
2023-04-02T20:30:07.469Z,1.65
2023-04-02T20:33:12.160Z,1.80
2023-04-02T20:36:18.007Z,1.80
2023-04-02T20:39:22.134Z,1.60
2023-04-02T20:42:27.193Z,1.60
2023-04-02T20:45:32.494Z,1.48
2023-04-02T20:48:36.926Z,1.57
2023-04-02T20:51:59.182Z,1.42
2023-04-02T20:55:19.651Z,1.30
2023-04-02T20:58:22.999Z,1.10
2023-04-02T21:01:30.250Z,1.40
2023-04-02T21:04:33.392Z,1.05
2023-04-02T21:07:36.987Z,1.25
2023-04-02T21:10:40.893Z,1.10
2023-04-02T21:13:44.846Z,1.10
2023-04-02T21:16:48.076Z,0.93
2023-04-02T21:19:52.641Z,1.65
2023-04-02T21:22:55.858Z,2.15
2023-04-02T21:26:06.397Z,2.00
2023-04-02T21:29:11.613Z,1.98
2023-04-02T21:32:21.294Z,1.90
2023-04-02T21:35:25.359Z,2.00
2023-04-02T21:38:28.946Z,2.10
2023-04-02T21:41:34.994Z,1.60
2023-04-02T21:44:38.616Z,2.10
2023-04-02T21:47:43.129Z,2.30
2023-04-02T21:50:46.782Z,1.95
2023-04-02T21:53:51.025Z,2.50
2023-04-02T21:56:54.479Z,2.28
2023-04-02T21:59:57.703Z,2.37
2023-04-02T22:03:01.339Z,2.20
2023-04-02T22:06:10.622Z,2.30
2023-04-02T22:09:19.543Z,2.78
2023-04-02T22:12:24.100Z,2.27
2023-04-02T22:15:27.203Z,2.42
2023-04-02T22:18:31.517Z,2.60
2023-04-02T22:21:36.348Z,2.60
2023-04-02T22:24:39.762Z,2.30
2023-04-02T22:27:42.896Z,2.28
2023-04-02T22:30:46.486Z,2.37
2023-04-02T22:33:50.706Z,2.33
2023-04-02T22:36:54.066Z,2.53
2023-04-02T22:39:57.263Z,2.92
2023-04-02T22:43:00.989Z,3.15
2023-04-02T22:46:05.804Z,2.53
2023-04-02T22:49:11.118Z,2.60
2023-04-02T22:52:14.265Z,2.55
2023-04-02T22:55:18.167Z,2.75
2023-04-02T22:58:22.738Z,2.30
2023-04-02T23:01:29.818Z,3.05
2023-04-02T23:04:33.656Z,2.75
2023-04-02T23:07:37.141Z,2.90
2023-04-02T23:10:40.493Z,2.80
2023-04-02T23:13:44.762Z,3.03
2023-04-02T23:16:47.779Z,2.90
2023-04-02T23:19:51.161Z,2.72
2023-04-02T23:22:57.181Z,2.80
2023-04-02T23:26:05.584Z,3.10
2023-04-02T23:29:09.921Z,2.78
2023-04-02T23:32:13.455Z,2.90
2023-04-02T23:35:17.259Z,2.80
2023-04-02T23:38:20.757Z,2.60
2023-04-02T23:41:26.730Z,3.17
2023-04-02T23:44:30.542Z,2.70
2023-04-02T23:47:33.643Z,3.17
2023-04-02T23:50:37.204Z,3.12
2023-04-02T23:53:40.745Z,3.50
2023-04-02T23:56:44.158Z,3.28
2023-04-02T23:59:47.531Z,3.33
